Airfield :
LOGIN :

Register | Disclaimer

   EN    FR    IT 

 










Legend :    VFR   Marginal VFR   IFR   Intensive IFR   Very Intensive IFR
Visi :
Ceiling :
>= 8 km
>= 3000ft
5 to 8 km
1000 to 3000 ft
1500m to 5 km
500 to 1000 ft
800 to 1500m
200 to 500 ft
< 800m
< 200 ft
Symbols :   Thunderstorms  Fog  Heavy snow  Heavy precipitations  Wind > 20 kt
SIGMETs :     Misc.  Thunderstorms  Icing  Turbulence  Mountain Waves  Volcanic Ashes







- Airport Elevation : 502 ft
- IATA code : ORK


EICK - Cork

CURRENT METAR :
  • 170730Z 23012KT 9999 SCT004 SCT007 BKN018 14/14 Q1007 TEMPO 3000 BKN007

EXPIRED METARs :
  • 170700Z 19008KT 160V220 1600 R17/P2000 R35/P2000 -RADZ OVC001 14/14 Q1007 TEMPO 0500
  • 170630Z 19008KT 160V230 4000 -DZ BR SCT001 BKN002 14/14 Q1007 TEMPO 3000
  • 170600Z 19007KT 9999 FEW002 BKN003 13/13 Q1007 TEMPO 3000
  • 170530Z 19007KT 9999 FEW003 SCT090 12/12 Q1007 TEMPO 3000 BKN005 SCT018CB
  • 170500Z 21008KT 9999 SCT003 SCT090 12/12 Q1007 TEMPO 3000 BKN003

TAF AMD TAF EICK
Valid from the 17 at 07:00 until the 18 at 06:00 UTC


170705Z 1707/1806 19008KT 1600 -RADZ BKN003
TEMPO 1707/1708 0500 FG OVC001
BECMG 1708/1710 9999 -SHRA SCT008 BKN020
TEMPO 1709/1710 3000 -SHRA BR BKN007 SCT018CB
BECMG 1708/1710 23014KT
TEMPO 1712/1718 24016G26KT
TEMPO 1714/1721 -SHRA SCT018CB
BECMG 1720/1722 27012KT
BECMG 1803/1805 24008KT
No reported NOTAMs for that airfield.



MET'MAP, your aeronautical weather chart ! - Copyright ORBIFLY December 2007 - Disclaimer

ORBIFLY MET'MAP TEAM :

Programming & Development : Alexandra Zaïnal
Concept & Development : Baudouin d'Aumeries
Co-Development & Prog : Marc-Olivier Méhu
Technical & hardware support : Manuel Goepfert

Contact : metmap@orbifly.com




SOURCES & CREDITS :

   NOAA